createdAt,value
2022-10-17T00:04:01.821Z,2.63
2022-10-17T00:10:06.141Z,2.90
2022-10-17T00:16:09.100Z,2.43
2022-10-17T00:22:14.636Z,2.70
2022-10-17T00:28:17.541Z,2.63
2022-10-17T00:34:19.386Z,2.43
2022-10-17T00:40:21.293Z,3.43
2022-10-17T00:46:27.442Z,3.37
2022-10-17T00:52:31.241Z,3.03
2022-10-17T00:58:33.407Z,2.70
2022-10-17T01:04:38.018Z,3.20
2022-10-17T01:11:26.333Z,3.07
2022-10-17T01:17:46.043Z,3.27
2022-10-17T01:24:20.557Z,3.07
2022-10-17T01:31:08.719Z,2.70
2022-10-17T01:37:47.022Z,3.10
2022-10-17T01:44:03.581Z,2.90
2022-10-17T01:50:14.176Z,3.97
2022-10-17T01:56:18.480Z,3.33
2022-10-17T02:02:38.325Z,3.30
2022-10-17T02:08:49.016Z,3.60
2022-10-17T02:21:24.405Z,3.30
2022-10-17T02:28:09.294Z,3.40
2022-10-17T02:34:29.050Z,3.90
2022-10-17T02:40:32.211Z,3.73
2022-10-17T02:46:45.017Z,3.57
2022-10-17T02:53:07.118Z,3.97
2022-10-17T02:59:12.370Z,4.07
2022-10-17T03:05:28.688Z,3.67
2022-10-17T03:11:30.568Z,2.90
2022-10-17T03:17:32.673Z,3.77
2022-10-17T03:23:34.590Z,3.10
2022-10-17T03:29:36.463Z,3.30
2022-10-17T03:35:42.673Z,3.70
2022-10-17T03:41:44.625Z,3.63
2022-10-17T03:47:46.531Z,3.50
2022-10-17T03:53:48.482Z,3.50
2022-10-17T03:59:52.433Z,3.50
2022-10-17T04:05:54.534Z,3.57
2022-10-17T04:11:56.470Z,3.33
2022-10-17T04:17:58.474Z,3.50
2022-10-17T04:24:01.250Z,3.57
2022-10-17T04:30:03.494Z,3.60
2022-10-17T04:36:12.405Z,3.73
2022-10-17T04:42:14.281Z,3.20
2022-10-17T04:48:16.158Z,3.17
2022-10-17T04:54:18.253Z,3.00
2022-10-17T05:00:21.482Z,3.30
2022-10-17T05:06:28.237Z,3.10
2022-10-17T05:12:30.458Z,3.23
2022-10-17T05:18:32.886Z,3.20
2022-10-17T05:24:35.248Z,2.90
2022-10-17T05:30:37.734Z,2.93
2022-10-17T05:36:40.306Z,3.30
2022-10-17T05:42:49.735Z,3.70
2022-10-17T05:48:52.739Z,3.60
2022-10-17T05:54:54.636Z,5.20
2022-10-17T06:01:04.450Z,15.50
2022-10-17T06:07:06.890Z,9.17
2022-10-17T06:13:12.110Z,4.80
2022-10-17T06:19:14.419Z,3.67
2022-10-17T06:25:16.372Z,4.10
2022-10-17T06:31:18.351Z,3.20
2022-10-17T06:37:20.719Z,3.90
2022-10-17T06:43:27.737Z,3.13
2022-10-17T06:49:31.732Z,3.00
2022-10-17T06:55:34.328Z,3.07
2022-10-17T07:01:36.777Z,2.53
2022-10-17T07:07:43.062Z,2.63
2022-10-17T07:13:47.813Z,2.80
2022-10-17T07:19:49.815Z,2.53
2022-10-17T07:25:55.151Z,2.57
2022-10-17T07:32:00.448Z,2.50
2022-10-17T07:38:02.376Z,2.77
2022-10-17T07:44:04.685Z,3.30
2022-10-17T07:50:07.400Z,2.73
2022-10-17T07:56:10.090Z,2.93
2022-10-17T08:02:23.602Z,2.20
2022-10-17T08:08:25.642Z,2.07
2022-10-17T08:14:27.683Z,2.40
2022-10-17T08:20:29.657Z,2.43
2022-10-17T08:26:31.868Z,2.33
2022-10-17T08:32:33.826Z,2.50
2022-10-17T08:38:41.459Z,2.57
2022-10-17T08:45:03.623Z,2.20
2022-10-17T08:51:20.022Z,2.30
2022-10-17T08:57:22.107Z,1.97
2022-10-17T09:04:05.761Z,2.50
2022-10-17T09:10:15.561Z,2.20
2022-10-17T09:16:43.598Z,2.03
2022-10-17T09:23:19.253Z,2.00
2022-10-17T09:29:29.595Z,2.20
2022-10-17T09:35:35.196Z,2.80
2022-10-17T09:41:52.021Z,2.60
2022-10-17T09:48:17.022Z,2.37
2022-10-17T09:54:46.054Z,2.37
2022-10-17T10:00:49.236Z,2.17
2022-10-17T10:07:21.476Z,2.50
2022-10-17T10:13:27.481Z,2.40
2022-10-17T10:19:34.240Z,2.33
2022-10-17T10:25:36.631Z,2.57
2022-10-17T10:31:40.221Z,2.40
2022-10-17T10:37:51.716Z,3.40
2022-10-17T10:43:56.340Z,2.50
2022-10-17T10:50:38.124Z,2.63
2022-10-17T10:56:53.451Z,2.53
2022-10-17T11:03:26.907Z,2.43
2022-10-17T11:09:34.449Z,1.90
2022-10-17T11:15:49.148Z,2.57
2022-10-17T11:22:14.894Z,2.20
2022-10-17T11:28:23.623Z,2.03
2022-10-17T11:34:31.290Z,1.87
2022-10-17T11:40:39.201Z,1.80
2022-10-17T11:47:11.552Z,1.80
2022-10-17T11:53:19.163Z,2.03
2022-10-17T11:59:58.244Z,2.43
2022-10-17T12:06:08.349Z,2.30
2022-10-17T12:12:30.033Z,2.50
2022-10-17T12:18:33.089Z,2.20
2022-10-17T12:24:56.802Z,1.70
2022-10-17T12:38:27.890Z,1.93
2022-10-17T12:44:34.976Z,1.87
2022-10-17T12:51:00.720Z,1.70
2022-10-17T12:57:33.419Z,1.90
2022-10-17T13:03:45.261Z,2.20
2022-10-17T13:09:49.958Z,1.70
2022-10-17T13:15:55.274Z,2.00
2022-10-17T13:22:06.727Z,2.00
2022-10-17T13:28:13.798Z,1.80
2022-10-17T13:34:26.746Z,1.73
2022-10-17T13:40:49.226Z,1.83
2022-10-17T13:46:52.511Z,2.37
2022-10-17T13:53:24.706Z,2.00
2022-10-17T13:59:41.156Z,2.40
2022-10-17T14:06:17.300Z,2.30
2022-10-17T14:12:21.078Z,2.10
2022-10-17T14:18:36.133Z,1.97
2022-10-17T14:24:39.703Z,2.40
2022-10-17T14:31:02.446Z,2.27
2022-10-17T14:37:12.735Z,1.80
2022-10-17T14:43:21.475Z,2.10
2022-10-17T14:49:32.776Z,2.03
2022-10-17T14:55:36.883Z,1.90
2022-10-17T15:01:38.743Z,1.90
2022-10-17T15:07:42.011Z,2.10
2022-10-17T15:13:49.169Z,2.83
2022-10-17T15:26:15.907Z,2.17
2022-10-17T15:32:17.824Z,2.30
2022-10-17T15:38:19.806Z,3.03
2022-10-17T15:44:21.758Z,2.07
2022-10-17T15:50:23.972Z,2.00
2022-10-17T15:56:31.782Z,1.90
2022-10-17T16:02:34.246Z,2.30
2022-10-17T16:08:36.133Z,2.40
2022-10-17T16:14:38.005Z,2.50
2022-10-17T16:20:39.944Z,2.43
2022-10-17T16:26:42.196Z,2.70
2022-10-17T16:32:44.925Z,2.30
2022-10-17T16:38:48.046Z,2.43
2022-10-17T16:44:50.734Z,2.40
2022-10-17T16:50:52.656Z,2.87
2022-10-17T16:56:54.662Z,2.83
2022-10-17T17:02:56.517Z,2.80
2022-10-17T17:08:58.970Z,3.40
2022-10-17T17:15:01.272Z,3.40
2022-10-17T17:21:06.983Z,2.70
2022-10-17T17:27:11.330Z,2.10
2022-10-17T17:33:15.387Z,2.90
2022-10-17T17:39:17.388Z,2.60
2022-10-17T17:45:19.521Z,2.47
2022-10-17T17:51:28.386Z,2.60
2022-10-17T17:57:31.083Z,2.50
2022-10-17T18:03:33.008Z,3.10
2022-10-17T18:09:35.075Z,3.40
2022-10-17T18:15:40.066Z,2.40
2022-10-17T18:21:44.372Z,2.60
2022-10-17T18:27:48.195Z,2.80
2022-10-17T18:33:56.588Z,2.93
2022-10-17T18:39:58.518Z,2.97
2022-10-17T18:46:19.445Z,3.83
2022-10-17T18:52:21.476Z,3.60
2022-10-17T18:58:23.878Z,3.97
2022-10-17T19:04:26.225Z,3.80
2022-10-17T19:10:28.238Z,5.17
2022-10-17T19:16:36.431Z,3.17
2022-10-17T19:28:56.281Z,3.93
2022-10-17T19:34:58.411Z,3.10
2022-10-17T19:47:07.341Z,3.90
2022-10-17T19:53:09.228Z,4.47
2022-10-17T19:59:14.206Z,3.77
2022-10-17T20:05:18.928Z,5.60
2022-10-17T20:11:25.135Z,3.53
2022-10-17T20:17:27.309Z,3.87
2022-10-17T20:23:29.204Z,3.30
2022-10-17T20:29:31.115Z,4.20
2022-10-17T20:35:33.079Z,4.20
2022-10-17T20:41:35.314Z,3.90
2022-10-17T20:47:45.986Z,4.10
2022-10-17T20:53:50.190Z,4.53
2022-10-17T20:59:52.206Z,4.40
2022-10-17T21:05:54.088Z,4.37
2022-10-17T21:11:56.965Z,4.17
2022-10-17T21:17:59.059Z,5.00
2022-10-17T21:24:06.152Z,4.33
2022-10-17T21:36:29.967Z,4.73
2022-10-17T21:42:32.295Z,4.90
2022-10-17T21:48:35.597Z,5.17
2022-10-17T21:54:37.582Z,4.70
2022-10-17T22:00:39.501Z,4.73
2022-10-17T22:06:44.087Z,4.93
2022-10-17T22:12:45.986Z,5.60
2022-10-17T22:18:48.142Z,4.90
2022-10-17T22:24:50.111Z,4.50
2022-10-17T22:30:53.113Z,5.20
2022-10-17T22:36:54.981Z,4.60
2022-10-17T22:42:57.016Z,5.33
2022-10-17T22:48:59.547Z,5.50
2022-10-17T22:55:01.580Z,6.23
2022-10-17T23:01:13.951Z,6.00
2022-10-17T23:07:15.883Z,5.97
2022-10-17T23:13:18.821Z,6.93
2022-10-17T23:19:25.652Z,7.20
2022-10-17T23:25:27.711Z,8.50
2022-10-17T23:31:29.694Z,7.40
2022-10-17T23:37:31.886Z,6.80
2022-10-17T23:43:34.662Z,6.47
2022-10-17T23:49:47.081Z,7.67
2022-10-17T23:55:49.021Z,8.13
